createdAt,value
2019-04-21T00:01:59.703Z,14.20
2019-04-21T00:04:42.998Z,14.20
2019-04-21T00:07:22.180Z,14.20
2019-04-21T00:12:27.309Z,14.20
2019-04-21T00:14:47.158Z,14.20
2019-04-21T00:17:13.188Z,14.20
2019-04-21T00:19:42.987Z,14.10
2019-04-21T00:22:24.708Z,13.90
2019-04-21T00:25:01.061Z,13.90
2019-04-21T00:27:36.785Z,14.00
2019-04-21T00:30:12.476Z,14.00
2019-04-21T00:32:33.391Z,13.90
2019-04-21T00:35:00.419Z,13.80
2019-04-21T00:37:36.561Z,13.60
2019-04-21T00:40:16.158Z,13.70
2019-04-21T00:42:43.100Z,13.60
2019-04-21T00:45:14.297Z,13.60
2019-04-21T00:47:47.197Z,13.60
2019-04-21T00:50:24.716Z,13.50
2019-04-21T00:55:35.499Z,13.50
2019-04-21T00:58:06.583Z,13.30
2019-04-21T01:00:32.656Z,13.10
2019-04-21T01:03:10.944Z,13.00
2019-04-21T01:05:41.697Z,12.80
2019-04-21T01:08:11.490Z,12.70
2019-04-21T01:10:31.971Z,12.70
2019-04-21T01:13:16.869Z,12.90
2019-04-21T01:15:51.401Z,13.00
2019-04-21T01:18:16.498Z,12.90
2019-04-21T01:20:27.113Z,12.90
2019-04-21T01:22:57.792Z,12.90
2019-04-21T01:25:35.309Z,12.70
2019-04-21T01:28:16.827Z,12.60
2019-04-21T01:30:54.917Z,12.60
2019-04-21T01:33:26.052Z,12.50
2019-04-21T01:35:55.278Z,12.40
2019-04-21T01:38:32.009Z,12.40
2019-04-21T01:40:59.174Z,12.60
2019-04-21T01:43:31.548Z,12.70
2019-04-21T01:46:00.673Z,12.60
2019-04-21T01:48:30.876Z,12.50
2019-04-21T01:51:03.769Z,12.40
2019-04-21T01:53:48.333Z,12.40
2019-04-21T01:56:34.601Z,12.30
2019-04-21T01:58:56.397Z,12.20
2019-04-21T02:01:38.607Z,12.00
2019-04-21T02:04:14.069Z,12.00
2019-04-21T02:06:45.638Z,12.00
2019-04-21T02:09:14.914Z,12.00
2019-04-21T02:11:52.074Z,11.90
2019-04-21T02:14:23.017Z,11.90
2019-04-21T02:16:53.812Z,11.80
2019-04-21T02:19:19.985Z,11.70
2019-04-21T02:21:49.203Z,11.90
2019-04-21T02:24:38.756Z,11.80
2019-04-21T02:26:59.222Z,11.80
2019-04-21T02:29:33.143Z,11.80
2019-04-21T02:32:14.443Z,11.60
2019-04-21T02:39:49.541Z,11.80
2019-04-21T02:42:23.827Z,11.60
2019-04-21T02:47:34.519Z,11.40
2019-04-21T02:50:00.371Z,11.30
2019-04-21T02:52:31.895Z,11.30
2019-04-21T02:55:01.660Z,11.30
2019-04-21T03:00:06.900Z,11.40
2019-04-21T03:05:21.050Z,11.20
2019-04-21T03:10:26.680Z,10.90
2019-04-21T03:12:50.969Z,10.90
2019-04-21T03:18:01.824Z,10.70
2019-04-21T03:23:00.074Z,10.50
2019-04-21T03:33:51.884Z,10.20
2019-04-21T03:38:16.638Z,10.10
2019-04-21T03:43:16.622Z,9.90
2019-04-21T03:48:23.856Z,9.80
2019-04-21T03:53:18.456Z,9.70
2019-04-21T03:55:53.055Z,9.60
2019-04-21T03:58:41.930Z,9.60
2019-04-21T04:04:06.132Z,9.40
2019-04-21T04:09:14.298Z,9.50
2019-04-21T04:11:41.536Z,9.50
2019-04-21T04:14:04.079Z,9.50
2019-04-21T04:19:03.794Z,9.40
2019-04-21T04:21:37.211Z,9.40
2019-04-21T04:26:40.954Z,9.30
2019-04-21T04:29:18.307Z,9.10
2019-04-21T04:31:52.895Z,9.10
2019-04-21T04:34:27.616Z,9.10
2019-04-21T04:36:55.254Z,9.20
2019-04-21T04:45:05.846Z,9.70
2019-04-21T04:52:31.741Z,11.20
2019-04-21T05:00:01.846Z,13.60
2019-04-21T05:02:28.057Z,13.80
2019-04-21T05:05:17.325Z,13.70
2019-04-21T05:07:33.746Z,13.80
2019-04-21T05:15:04.811Z,15.30
2019-04-21T05:17:37.756Z,16.00
2019-04-21T05:20:08.580Z,16.90
2019-04-21T05:22:31.457Z,17.90
2019-04-21T05:24:55.317Z,19.20
2019-04-21T05:27:34.975Z,20.40
2019-04-21T05:30:22.151Z,21.50
2019-04-21T05:33:07.014Z,22.60
2019-04-21T05:35:51.946Z,23.00
2019-04-21T05:38:39.135Z,23.40
2019-04-21T05:41:05.296Z,23.70
2019-04-21T05:43:48.136Z,24.60
2019-04-21T05:46:21.248Z,25.30
2019-04-21T05:48:46.915Z,25.30
2019-04-21T05:51:16.437Z,26.10
2019-04-21T05:53:59.836Z,26.20
2019-04-21T05:56:32.639Z,26.20
2019-04-21T05:58:58.813Z,24.90
2019-04-21T06:01:33.313Z,23.20
2019-04-21T06:04:07.247Z,22.70
2019-04-21T06:06:34.128Z,22.60
2019-04-21T06:09:13.011Z,22.50
2019-04-21T06:11:39.216Z,22.30
2019-04-21T06:14:09.569Z,22.10
2019-04-21T06:19:15.078Z,22.20
2019-04-21T06:21:39.275Z,21.90
2019-04-21T06:24:17.601Z,21.90
2019-04-21T06:29:18.489Z,21.40
2019-04-21T06:32:16.715Z,20.50
2019-04-21T06:34:24.425Z,19.60
2019-04-21T06:37:18.777Z,19.60
2019-04-21T06:39:34.852Z,19.90
2019-04-21T06:42:02.767Z,19.90
2019-04-21T06:44:44.823Z,19.50
2019-04-21T06:47:09.826Z,19.70
2019-04-21T06:49:40.505Z,20.00
2019-04-21T06:52:33.447Z,20.30
2019-04-21T06:54:47.065Z,20.80
2019-04-21T06:57:21.770Z,21.40
2019-04-21T06:59:54.238Z,21.00
2019-04-21T07:02:40.913Z,21.10
2019-04-21T07:04:54.802Z,21.10
2019-04-21T07:07:26.056Z,21.30
2019-04-21T07:10:04.877Z,21.80
2019-04-21T07:12:30.938Z,21.90
2019-04-21T07:15:01.414Z,22.10
2019-04-21T07:17:45.581Z,22.10
2019-04-21T07:20:17.184Z,22.00
2019-04-21T07:25:13.777Z,20.90
2019-04-21T07:27:58.106Z,20.50
2019-04-21T07:30:14.890Z,21.20
2019-04-21T07:35:20.759Z,20.40
2019-04-21T07:37:53.610Z,20.40
2019-04-21T07:40:24.701Z,20.60
2019-04-21T07:42:55.678Z,20.70
2019-04-21T07:45:27.214Z,20.50
2019-04-21T07:48:03.398Z,20.40
2019-04-21T07:50:46.926Z,20.60
2019-04-21T07:53:45.654Z,20.80
2019-04-21T07:55:51.209Z,20.70
2019-04-21T07:58:45.885Z,20.40
2019-04-21T08:01:19.849Z,20.60
2019-04-21T08:03:46.128Z,20.80
2019-04-21T08:06:20.494Z,20.90
2019-04-21T08:08:49.209Z,21.10
2019-04-21T08:11:15.257Z,20.90
2019-04-21T08:13:53.489Z,20.70
2019-04-21T08:16:25.703Z,20.60
2019-04-21T08:19:02.927Z,20.70
2019-04-21T08:21:27.937Z,20.90
2019-04-21T08:23:54.249Z,21.10
2019-04-21T08:26:38.283Z,21.30
2019-04-21T08:29:12.669Z,21.30
2019-04-21T08:31:38.286Z,21.40
2019-04-21T08:34:08.318Z,21.40
2019-04-21T08:36:35.612Z,21.40
2019-04-21T08:39:11.063Z,21.70
2019-04-21T08:41:40.778Z,21.60
2019-04-21T08:44:10.651Z,21.90
2019-04-21T08:46:49.088Z,22.20
2019-04-21T08:49:15.302Z,22.60
2019-04-21T08:51:48.508Z,22.70
2019-04-21T08:54:22.651Z,22.30
2019-04-21T08:56:54.260Z,22.80
2019-04-21T08:59:34.302Z,22.60
2019-04-21T09:02:09.196Z,22.30
2019-04-21T09:04:33.549Z,22.50
2019-04-21T09:07:25.870Z,22.50
2019-04-21T09:09:41.620Z,22.80
2019-04-21T09:12:10.656Z,22.90
2019-04-21T09:14:42.973Z,23.10
2019-04-21T09:17:10.808Z,23.60
2019-04-21T09:20:13.629Z,23.20
2019-04-21T09:22:17.887Z,23.40
2019-04-21T09:24:46.909Z,23.40
2019-04-21T09:27:14.288Z,23.70
2019-04-21T09:29:39.277Z,24.00
2019-04-21T09:32:09.680Z,24.40
2019-04-21T09:34:40.430Z,24.30
2019-04-21T09:37:23.520Z,24.30
2019-04-21T09:39:43.921Z,24.50
2019-04-21T09:42:11.401Z,24.20
2019-04-21T09:44:44.418Z,24.70
2019-04-21T09:47:15.898Z,25.40
2019-04-21T09:49:45.226Z,25.80
2019-04-21T09:52:21.046Z,26.40
2019-04-21T09:54:56.425Z,26.50
2019-04-21T09:57:27.625Z,27.40
2019-04-21T10:00:04.110Z,28.20
2019-04-21T10:02:36.552Z,28.20
2019-04-21T10:04:53.004Z,27.90
2019-04-21T10:07:31.077Z,28.20
2019-04-21T10:09:54.633Z,29.50
2019-04-21T10:12:25.760Z,29.60
2019-04-21T10:14:55.682Z,28.70
2019-04-21T10:17:30.429Z,28.50
2019-04-21T10:20:00.757Z,29.50
2019-04-21T10:22:30.954Z,30.00
2019-04-21T10:25:00.943Z,30.30
2019-04-21T10:27:31.521Z,31.00
2019-04-21T10:30:01.735Z,31.10
2019-04-21T10:32:34.398Z,30.20
2019-04-21T10:35:07.338Z,29.80
2019-04-21T10:37:48.332Z,29.70
2019-04-21T10:40:09.758Z,29.30
2019-04-21T10:42:40.422Z,29.70
2019-04-21T10:45:12.654Z,30.50
2019-04-21T10:47:43.146Z,31.20
2019-04-21T10:50:14.164Z,30.70
2019-04-21T10:53:04.910Z,30.00
2019-04-21T10:55:48.583Z,29.60
2019-04-21T10:58:14.410Z,30.50
2019-04-21T11:00:46.219Z,32.20
2019-04-21T11:03:36.905Z,31.60
2019-04-21T11:06:10.619Z,31.80
2019-04-21T11:08:44.135Z,33.00
2019-04-21T11:11:12.406Z,33.80
2019-04-21T11:13:42.330Z,33.00
2019-04-21T11:16:13.112Z,33.60
2019-04-21T11:18:44.101Z,33.50
2019-04-21T11:21:14.105Z,34.00
2019-04-21T11:23:44.073Z,33.90
2019-04-21T11:26:14.117Z,33.40
2019-04-21T11:28:45.201Z,32.80
2019-04-21T11:31:15.500Z,32.90
2019-04-21T11:33:47.058Z,32.70
2019-04-21T11:36:17.366Z,32.00
2019-04-21T11:39:05.414Z,31.60
2019-04-21T11:41:21.629Z,32.20
2019-04-21T11:43:52.994Z,31.90
2019-04-21T11:46:24.391Z,31.60
2019-04-21T11:48:55.551Z,31.30
2019-04-21T11:51:26.897Z,32.00
2019-04-21T11:53:57.147Z,32.00
2019-04-21T11:56:27.249Z,31.50
2019-04-21T11:58:57.768Z,32.40
2019-04-21T12:01:27.932Z,32.60
2019-04-21T12:03:58.041Z,31.00
2019-04-21T12:06:32.229Z,30.70
2019-04-21T12:09:02.851Z,32.00
2019-04-21T12:11:33.673Z,32.80
2019-04-21T12:14:03.930Z,31.50
2019-04-21T12:16:35.069Z,30.70
2019-04-21T12:19:05.268Z,30.80
2019-04-21T12:21:50.646Z,31.00
2019-04-21T12:24:07.097Z,30.40
2019-04-21T12:26:37.950Z,30.70
2019-04-21T12:29:08.226Z,31.50
2019-04-21T12:31:57.231Z,31.90
2019-04-21T12:34:28.059Z,31.50
2019-04-21T12:36:59.121Z,30.70
2019-04-21T12:39:30.552Z,31.10
2019-04-21T12:42:00.647Z,31.70
2019-04-21T12:44:31.655Z,32.40
2019-04-21T12:47:01.710Z,32.40
2019-04-21T12:49:31.851Z,32.30
2019-04-21T12:52:02.031Z,31.90
2019-04-21T12:54:33.370Z,32.00
2019-04-21T12:57:05.415Z,31.60
2019-04-21T12:59:36.321Z,31.60
2019-04-21T13:02:07.489Z,32.20
2019-04-21T13:04:37.856Z,32.80
2019-04-21T13:07:08.038Z,32.00
2019-04-21T13:09:37.991Z,30.70
2019-04-21T13:12:08.984Z,30.10
2019-04-21T13:14:39.878Z,30.10
2019-04-21T13:17:10.055Z,29.90
2019-04-21T13:19:41.230Z,29.70
2019-04-21T13:22:12.201Z,28.70
2019-04-21T13:24:42.256Z,27.80
2019-04-21T13:27:12.772Z,27.90
2019-04-21T13:29:44.020Z,28.00
2019-04-21T13:32:14.505Z,27.80
2019-04-21T13:34:46.074Z,27.50
2019-04-21T13:37:17.484Z,26.30
2019-04-21T13:40:21.020Z,25.70
2019-04-21T13:42:40.732Z,25.20
2019-04-21T13:45:08.224Z,24.90
2019-04-21T13:47:38.700Z,24.60
2019-04-21T13:50:11.152Z,24.40
2019-04-21T13:52:42.619Z,24.20
2019-04-21T13:55:13.903Z,24.10
2019-04-21T13:57:44.459Z,24.00
2019-04-21T14:00:15.208Z,23.90
2019-04-21T14:02:46.854Z,23.70
2019-04-21T14:05:18.163Z,23.60
2019-04-21T14:07:48.227Z,23.60
2019-04-21T14:10:19.866Z,23.50
2019-04-21T14:12:50.667Z,23.50
2019-04-21T14:15:22.269Z,23.50
2019-04-21T14:17:53.080Z,23.50
2019-04-21T14:20:23.262Z,23.50
2019-04-21T14:22:53.983Z,23.40
2019-04-21T14:25:24.018Z,23.30
2019-04-21T14:27:54.585Z,23.30
2019-04-21T14:30:26.282Z,23.40
2019-04-21T14:32:56.346Z,23.50
2019-04-21T14:35:27.131Z,23.40
2019-04-21T14:37:58.194Z,23.40
2019-04-21T14:40:31.344Z,23.50
2019-04-21T14:43:00.353Z,23.40
2019-04-21T14:45:35.160Z,23.50
2019-04-21T14:48:23.224Z,23.60
2019-04-21T14:51:07.074Z,23.60
2019-04-21T14:53:56.854Z,23.60
2019-04-21T14:56:27.104Z,23.50
2019-04-21T14:58:59.006Z,23.50
2019-04-21T15:01:28.846Z,23.40
2019-04-21T15:03:59.769Z,23.40
2019-04-21T15:06:29.946Z,23.40
2019-04-21T15:09:00.902Z,23.50
2019-04-21T15:11:33.570Z,23.50
2019-04-21T15:14:04.200Z,23.60
2019-04-21T15:16:34.183Z,23.60
2019-04-21T15:19:04.472Z,23.70
2019-04-21T15:21:35.418Z,23.60
2019-04-21T15:24:06.506Z,23.70
2019-04-21T15:26:38.067Z,23.70
2019-04-21T15:29:08.844Z,23.80
2019-04-21T15:31:41.680Z,23.80
2019-04-21T15:34:10.923Z,23.80
2019-04-21T15:36:41.874Z,23.90
2019-04-21T15:39:11.998Z,24.10
2019-04-21T15:41:42.815Z,24.20
2019-04-21T15:44:12.858Z,24.30
2019-04-21T15:46:43.946Z,24.30
2019-04-21T15:49:15.389Z,24.40
2019-04-21T15:51:49.585Z,24.60
2019-04-21T15:54:20.594Z,24.50
2019-04-21T15:56:55.037Z,24.30
2019-04-21T15:59:34.691Z,24.30
2019-04-21T16:02:22.759Z,24.30
2019-04-21T16:04:52.765Z,24.20
2019-04-21T16:07:22.788Z,24.20
2019-04-21T16:09:54.339Z,24.10
2019-04-21T16:12:27.661Z,23.90
2019-04-21T16:15:00.367Z,23.70
2019-04-21T16:17:35.110Z,23.80
2019-04-21T16:20:10.280Z,23.80
2019-04-21T16:22:40.406Z,23.70
2019-04-21T16:25:10.838Z,23.70
2019-04-21T16:27:41.407Z,23.60
2019-04-21T16:30:13.564Z,23.50
2019-04-21T16:32:43.989Z,23.40
2019-04-21T16:35:16.382Z,23.40
2019-04-21T16:37:47.620Z,23.30
2019-04-21T16:40:19.446Z,23.20
2019-04-21T16:42:50.096Z,23.00
2019-04-21T16:45:21.123Z,22.90
2019-04-21T16:47:53.607Z,22.90
2019-04-21T16:50:25.422Z,22.80
2019-04-21T16:53:03.932Z,22.80
2019-04-21T16:55:41.768Z,22.70
2019-04-21T16:58:23.082Z,22.70
2019-04-21T17:01:00.682Z,22.60
2019-04-21T17:03:22.073Z,22.50
2019-04-21T17:05:52.115Z,22.50
2019-04-21T17:08:21.984Z,22.40
2019-04-21T17:11:02.930Z,22.40
2019-04-21T17:13:24.569Z,22.40
2019-04-21T17:16:16.873Z,22.30
2019-04-21T17:18:43.198Z,22.30
2019-04-21T17:21:01.151Z,22.30
2019-04-21T17:23:31.346Z,22.20
2019-04-21T17:26:01.514Z,22.20
2019-04-21T17:28:31.648Z,22.20
2019-04-21T17:31:02.471Z,22.10
2019-04-21T17:33:33.894Z,22.10
2019-04-21T17:36:05.291Z,22.00
2019-04-21T17:38:36.152Z,22.00
2019-04-21T17:41:19.351Z,21.90
2019-04-21T17:43:39.539Z,21.80
2019-04-21T17:46:13.600Z,21.80
2019-04-21T17:48:42.869Z,21.80
2019-04-21T17:51:14.684Z,21.70
2019-04-21T17:53:55.703Z,21.60
2019-04-21T17:56:58.575Z,21.60
2019-04-21T17:59:17.679Z,21.50
2019-04-21T18:01:57.663Z,21.40
2019-04-21T18:04:28.555Z,21.30
2019-04-21T18:07:24.903Z,21.30
2019-04-21T18:10:02.034Z,21.20
2019-04-21T18:12:28.074Z,21.10
2019-04-21T18:14:56.753Z,19.60
2019-04-21T18:17:18.462Z,21.00
2019-04-21T18:19:51.280Z,21.00
2019-04-21T18:25:32.040Z,20.80
2019-04-21T18:27:52.430Z,20.80
2019-04-21T18:30:40.758Z,20.80
2019-04-21T18:33:17.995Z,20.70
2019-04-21T18:36:04.647Z,20.50
2019-04-21T18:38:59.780Z,20.40
2019-04-21T18:41:13.341Z,20.30
2019-04-21T18:44:27.145Z,20.40
2019-04-21T18:46:58.624Z,20.30
2019-04-21T18:49:17.218Z,20.20
2019-04-21T18:52:12.817Z,20.20
2019-04-21T18:54:53.682Z,20.10
2019-04-21T18:57:18.617Z,20.00
2019-04-21T18:59:40.294Z,19.90
2019-04-21T19:02:11.231Z,19.80
2019-04-21T19:04:44.162Z,19.70
2019-04-21T19:07:30.588Z,19.60
2019-04-21T19:12:50.747Z,19.60
2019-04-21T19:15:06.710Z,19.50
2019-04-21T19:20:25.707Z,19.30
2019-04-21T19:22:48.665Z,19.30
2019-04-21T19:25:20.644Z,19.40
2019-04-21T19:27:55.395Z,19.30
2019-04-21T19:30:36.664Z,19.30
2019-04-21T19:33:01.082Z,19.30
2019-04-21T19:35:15.416Z,19.10
2019-04-21T19:37:55.176Z,19.10
2019-04-21T19:40:37.035Z,19.10
2019-04-21T19:43:03.407Z,19.00
2019-04-21T19:45:38.367Z,18.90
2019-04-21T19:48:12.270Z,18.90
2019-04-21T19:50:50.277Z,18.80
2019-04-21T19:53:19.862Z,18.70
2019-04-21T19:55:33.999Z,18.60
2019-04-21T19:58:05.228Z,18.60
2019-04-21T20:00:36.812Z,18.50
2019-04-21T20:03:08.303Z,18.50
2019-04-21T20:05:44.489Z,18.40
2019-04-21T20:08:27.783Z,18.40
2019-04-21T20:11:04.052Z,18.30
2019-04-21T20:13:48.754Z,18.20
2019-04-21T20:16:07.985Z,18.10
2019-04-21T20:18:30.439Z,18.00
2019-04-21T20:20:54.314Z,17.90
2019-04-21T20:23:31.530Z,17.90
2019-04-21T20:26:02.348Z,17.80
2019-04-21T20:28:44.364Z,17.60
2019-04-21T20:31:20.471Z,17.50
2019-04-21T20:33:59.959Z,17.50
2019-04-21T20:36:26.757Z,17.40
2019-04-21T20:38:49.052Z,17.30
2019-04-21T20:41:32.609Z,17.20
2019-04-21T20:44:09.954Z,17.20
2019-04-21T20:46:36.828Z,17.00
2019-04-21T20:49:02.701Z,17.00
2019-04-21T20:51:37.685Z,17.00
2019-04-21T20:54:16.004Z,16.80
2019-04-21T20:56:41.988Z,16.70
2019-04-21T20:59:17.031Z,16.80
2019-04-21T21:01:49.188Z,16.70
2019-04-21T21:04:16.279Z,16.60
2019-04-21T21:06:59.679Z,16.50
2019-04-21T21:09:29.176Z,16.50
2019-04-21T21:12:19.684Z,16.50
2019-04-21T21:14:32.025Z,16.30
2019-04-21T21:17:13.130Z,16.30
2019-04-21T21:19:39.718Z,16.20
2019-04-21T21:22:04.026Z,16.20
2019-04-21T21:24:56.844Z,16.20
2019-04-21T21:27:12.950Z,16.20
2019-04-21T21:29:45.212Z,16.10
2019-04-21T21:32:27.315Z,16.00
2019-04-21T21:34:49.574Z,15.90
2019-04-21T21:37:32.309Z,15.90
2019-04-21T21:39:57.229Z,15.90
2019-04-21T21:42:08.025Z,15.80
2019-04-21T21:44:40.762Z,15.70
2019-04-21T21:47:25.300Z,15.70
2019-04-21T21:49:57.806Z,15.70
2019-04-21T21:52:30.484Z,15.60
2019-04-21T21:54:45.591Z,15.60
2019-04-21T21:57:16.534Z,15.50
2019-04-21T21:59:50.777Z,15.40
2019-04-21T22:02:29.415Z,15.40
2019-04-21T22:04:56.866Z,15.30
2019-04-21T22:07:26.906Z,15.30
2019-04-21T22:09:54.470Z,15.20
2019-04-21T22:12:25.846Z,15.10
2019-04-21T22:14:57.535Z,15.00
2019-04-21T22:17:45.734Z,15.00
2019-04-21T22:20:14.018Z,14.90
2019-04-21T22:22:43.867Z,15.00
2019-04-21T22:25:10.630Z,14.90
2019-04-21T22:27:37.037Z,14.90
2019-04-21T22:30:13.098Z,14.70
2019-04-21T22:32:51.255Z,14.70
2019-04-21T22:35:26.064Z,14.70
2019-04-21T22:37:56.652Z,14.70
2019-04-21T22:40:29.257Z,14.70
2019-04-21T22:42:59.461Z,14.60
2019-04-21T22:45:21.141Z,14.60
2019-04-21T22:47:52.098Z,14.60
2019-04-21T22:50:24.896Z,14.40
2019-04-21T22:52:59.452Z,14.40
2019-04-21T22:55:30.886Z,14.40
2019-04-21T22:58:00.278Z,14.40
2019-04-21T23:00:37.726Z,14.40
2019-04-21T23:03:09.860Z,14.30
2019-04-21T23:05:37.699Z,14.30
2019-04-21T23:08:07.193Z,14.30
2019-04-21T23:10:41.426Z,14.30
2019-04-21T23:13:13.115Z,14.20
2019-04-21T23:15:46.104Z,14.20
2019-04-21T23:18:30.563Z,14.20
2019-04-21T23:21:02.888Z,14.10
2019-04-21T23:23:42.697Z,14.00
2019-04-21T23:26:07.499Z,14.10
2019-04-21T23:28:40.534Z,14.10
2019-04-21T23:31:12.359Z,14.00
2019-04-21T23:33:23.887Z,14.10
2019-04-21T23:36:03.643Z,14.10
2019-04-21T23:38:33.213Z,14.00
2019-04-21T23:41:00.558Z,13.90
2019-04-21T23:43:31.415Z,13.90
2019-04-21T23:46:04.230Z,13.80
2019-04-21T23:48:48.739Z,13.80
2019-04-21T23:51:15.891Z,13.80
2019-04-21T23:53:37.516Z,13.80
2019-04-21T23:56:07.616Z,13.80
2019-04-21T23:58:39.892Z,13.80
